sensor_id;sensor_type;location;lat;lon;timestamp;P1;durP1;ratioP1;P2;durP2;ratioP2
8716;SDS011;4395;48.554;8.820;2023-07-29T00:00:50;8.93;;;3.60;;
8716;SDS011;4395;48.554;8.820;2023-07-29T00:02:52;9.03;;;3.07;;
8716;SDS011;4395;48.554;8.820;2023-07-29T00:04:55;6.57;;;4.07;;
8716;SDS011;4395;48.554;8.820;2023-07-29T00:06:58;6.47;;;3.07;;
8716;SDS011;4395;48.554;8.820;2023-07-29T00:09:01;7.40;;;4.17;;
8716;SDS011;4395;48.554;8.820;2023-07-29T00:11:04;7.03;;;3.87;;
8716;SDS011;4395;48.554;8.820;2023-07-29T00:13:08;7.57;;;3.63;;
8716;SDS011;4395;48.554;8.820;2023-07-29T00:15:11;9.33;;;6.20;;
8716;SDS011;4395;48.554;8.820;2023-07-29T00:17:14;6.97;;;3.70;;
8716;SDS011;4395;48.554;8.820;2023-07-29T00:19:17;10.53;;;5.03;;
8716;SDS011;4395;48.554;8.820;2023-07-29T00:21:21;7.33;;;4.17;;
8716;SDS011;4395;48.554;8.820;2023-07-29T00:23:24;6.53;;;2.70;;
8716;SDS011;4395;48.554;8.820;2023-07-29T00:25:27;4.87;;;2.60;;
8716;SDS011;4395;48.554;8.820;2023-07-29T00:27:29;6.97;;;2.63;;
8716;SDS011;4395;48.554;8.820;2023-07-29T00:29:34;3.27;;;2.30;;
8716;SDS011;4395;48.554;8.820;2023-07-29T00:31:36;6.23;;;2.20;;
8716;SDS011;4395;48.554;8.820;2023-07-29T00:33:39;6.83;;;2.63;;
8716;SDS011;4395;48.554;8.820;2023-07-29T00:35:42;3.50;;;2.00;;
8716;SDS011;4395;48.554;8.820;2023-07-29T00:37:45;3.67;;;1.87;;
8716;SDS011;4395;48.554;8.820;2023-07-29T00:39:48;8.63;;;2.40;;
8716;SDS011;4395;48.554;8.820;2023-07-29T00:41:50;3.27;;;2.20;;
8716;SDS011;4395;48.554;8.820;2023-07-29T00:43:56;5.27;;;2.43;;
8716;SDS011;4395;48.554;8.820;2023-07-29T00:45:59;4.60;;;2.30;;
8716;SDS011;4395;48.554;8.820;2023-07-29T00:48:03;7.97;;;2.60;;
8716;SDS011;4395;48.554;8.820;2023-07-29T00:50:07;5.50;;;2.40;;
8716;SDS011;4395;48.554;8.820;2023-07-29T00:52:11;3.60;;;1.80;;
8716;SDS011;4395;48.554;8.820;2023-07-29T00:54:14;2.43;;;2.20;;
8716;SDS011;4395;48.554;8.820;2023-07-29T00:56:17;2.77;;;1.90;;
8716;SDS011;4395;48.554;8.820;2023-07-29T00:58:20;4.07;;;2.13;;
8716;SDS011;4395;48.554;8.820;2023-07-29T01:00:23;4.70;;;2.30;;
8716;SDS011;4395;48.554;8.820;2023-07-29T01:02:28;5.10;;;2.17;;
8716;SDS011;4395;48.554;8.820;2023-07-29T01:04:34;6.20;;;2.97;;
8716;SDS011;4395;48.554;8.820;2023-07-29T01:06:38;3.47;;;1.97;;
8716;SDS011;4395;48.554;8.820;2023-07-29T01:08:52;5.40;;;2.50;;
8716;SDS011;4395;48.554;8.820;2023-07-29T01:11:01;5.30;;;2.47;;
8716;SDS011;4395;48.554;8.820;2023-07-29T01:13:17;5.07;;;2.43;;
8716;SDS011;4395;48.554;8.820;2023-07-29T01:15:26;4.20;;;2.07;;
8716;SDS011;4395;48.554;8.820;2023-07-29T01:17:38;5.13;;;2.20;;
8716;SDS011;4395;48.554;8.820;2023-07-29T01:19:48;2.83;;;2.23;;
8716;SDS011;4395;48.554;8.820;2023-07-29T01:22:02;3.87;;;2.40;;
8716;SDS011;4395;48.554;8.820;2023-07-29T01:24:06;3.57;;;2.40;;
8716;SDS011;4395;48.554;8.820;2023-07-29T01:26:09;3.63;;;2.27;;
8716;SDS011;4395;48.554;8.820;2023-07-29T01:28:11;4.93;;;3.17;;
8716;SDS011;4395;48.554;8.820;2023-07-29T01:30:16;5.67;;;2.63;;
8716;SDS011;4395;48.554;8.820;2023-07-29T01:32:20;4.70;;;2.30;;
8716;SDS011;4395;48.554;8.820;2023-07-29T01:34:32;5.70;;;2.50;;
8716;SDS011;4395;48.554;8.820;2023-07-29T01:36:42;2.53;;;2.30;;
8716;SDS011;4395;48.554;8.820;2023-07-29T01:38:48;5.00;;;2.67;;
8716;SDS011;4395;48.554;8.820;2023-07-29T01:40:55;6.60;;;2.90;;
8716;SDS011;4395;48.554;8.820;2023-07-29T01:42:59;3.73;;;2.10;;
8716;SDS011;4395;48.554;8.820;2023-07-29T01:45:02;8.27;;;3.37;;
8716;SDS011;4395;48.554;8.820;2023-07-29T01:47:06;4.00;;;2.70;;
8716;SDS011;4395;48.554;8.820;2023-07-29T01:49:08;3.23;;;2.30;;
8716;SDS011;4395;48.554;8.820;2023-07-29T01:51:11;2.90;;;2.30;;
8716;SDS011;4395;48.554;8.820;2023-07-29T01:53:15;5.70;;;2.77;;
8716;SDS011;4395;48.554;8.820;2023-07-29T01:55:17;6.93;;;3.77;;
8716;SDS011;4395;48.554;8.820;2023-07-29T01:57:22;5.47;;;4.30;;
8716;SDS011;4395;48.554;8.820;2023-07-29T01:59:25;5.13;;;2.90;;
8716;SDS011;4395;48.554;8.820;2023-07-29T02:01:26;3.57;;;2.50;;
8716;SDS011;4395;48.554;8.820;2023-07-29T02:03:29;3.57;;;2.37;;
8716;SDS011;4395;48.554;8.820;2023-07-29T02:05:32;6.20;;;2.47;;
8716;SDS011;4395;48.554;8.820;2023-07-29T02:07:35;6.63;;;2.70;;
8716;SDS011;4395;48.554;8.820;2023-07-29T02:09:38;4.20;;;2.27;;
8716;SDS011;4395;48.554;8.820;2023-07-29T02:11:41;5.57;;;2.43;;
8716;SDS011;4395;48.554;8.820;2023-07-29T02:13:45;8.20;;;2.40;;
8716;SDS011;4395;48.554;8.820;2023-07-29T02:15:47;4.77;;;2.47;;
8716;SDS011;4395;48.554;8.820;2023-07-29T02:17:50;7.30;;;2.57;;
8716;SDS011;4395;48.554;8.820;2023-07-29T02:19:54;3.57;;;2.33;;
8716;SDS011;4395;48.554;8.820;2023-07-29T02:21:56;4.13;;;2.60;;
8716;SDS011;4395;48.554;8.820;2023-07-29T02:24:00;4.13;;;2.40;;
8716;SDS011;4395;48.554;8.820;2023-07-29T02:26:03;2.70;;;2.40;;
8716;SDS011;4395;48.554;8.820;2023-07-29T02:28:06;4.03;;;2.40;;
8716;SDS011;4395;48.554;8.820;2023-07-29T02:30:10;7.00;;;2.73;;
8716;SDS011;4395;48.554;8.820;2023-07-29T02:32:13;3.57;;;2.37;;
8716;SDS011;4395;48.554;8.820;2023-07-29T02:34:16;4.87;;;2.73;;
8716;SDS011;4395;48.554;8.820;2023-07-29T02:36:19;6.23;;;3.20;;
8716;SDS011;4395;48.554;8.820;2023-07-29T02:38:22;5.23;;;2.60;;
8716;SDS011;4395;48.554;8.820;2023-07-29T02:40:25;8.20;;;2.73;;
8716;SDS011;4395;48.554;8.820;2023-07-29T02:42:29;6.93;;;3.10;;
8716;SDS011;4395;48.554;8.820;2023-07-29T02:44:32;4.47;;;2.43;;
8716;SDS011;4395;48.554;8.820;2023-07-29T02:46:36;4.00;;;2.60;;
8716;SDS011;4395;48.554;8.820;2023-07-29T02:48:40;5.60;;;2.70;;
8716;SDS011;4395;48.554;8.820;2023-07-29T02:50:44;4.70;;;2.60;;
8716;SDS011;4395;48.554;8.820;2023-07-29T02:52:47;6.03;;;2.90;;
8716;SDS011;4395;48.554;8.820;2023-07-29T02:54:52;6.63;;;2.63;;
8716;SDS011;4395;48.554;8.820;2023-07-29T02:56:54;3.57;;;3.20;;
8716;SDS011;4395;48.554;8.820;2023-07-29T02:58:57;5.40;;;3.07;;
8716;SDS011;4395;48.554;8.820;2023-07-29T03:01:01;6.27;;;2.90;;
8716;SDS011;4395;48.554;8.820;2023-07-29T03:03:06;6.53;;;3.10;;
8716;SDS011;4395;48.554;8.820;2023-07-29T03:05:09;4.93;;;2.60;;
8716;SDS011;4395;48.554;8.820;2023-07-29T03:07:12;3.23;;;2.90;;
8716;SDS011;4395;48.554;8.820;2023-07-29T03:09:15;4.90;;;3.10;;
8716;SDS011;4395;48.554;8.820;2023-07-29T03:11:17;4.03;;;3.20;;
8716;SDS011;4395;48.554;8.820;2023-07-29T03:13:20;4.40;;;3.00;;
8716;SDS011;4395;48.554;8.820;2023-07-29T03:15:23;4.27;;;2.83;;
8716;SDS011;4395;48.554;8.820;2023-07-29T03:17:27;3.97;;;3.33;;
8716;SDS011;4395;48.554;8.820;2023-07-29T03:19:31;5.13;;;2.90;;
8716;SDS011;4395;48.554;8.820;2023-07-29T03:21:34;4.53;;;2.93;;
8716;SDS011;4395;48.554;8.820;2023-07-29T03:23:37;5.90;;;3.30;;
8716;SDS011;4395;48.554;8.820;2023-07-29T03:25:41;5.20;;;3.07;;
8716;SDS011;4395;48.554;8.820;2023-07-29T03:27:44;5.87;;;3.13;;
8716;SDS011;4395;48.554;8.820;2023-07-29T03:29:46;7.70;;;3.50;;
8716;SDS011;4395;48.554;8.820;2023-07-29T03:31:49;4.77;;;3.00;;
8716;SDS011;4395;48.554;8.820;2023-07-29T03:33:52;3.40;;;3.10;;
8716;SDS011;4395;48.554;8.820;2023-07-29T03:35:56;4.80;;;3.20;;
8716;SDS011;4395;48.554;8.820;2023-07-29T03:37:59;3.57;;;2.77;;
8716;SDS011;4395;48.554;8.820;2023-07-29T03:40:02;6.63;;;3.40;;
8716;SDS011;4395;48.554;8.820;2023-07-29T03:42:06;3.50;;;3.17;;
8716;SDS011;4395;48.554;8.820;2023-07-29T03:44:09;5.47;;;2.87;;
8716;SDS011;4395;48.554;8.820;2023-07-29T03:46:12;5.93;;;3.50;;
8716;SDS011;4395;48.554;8.820;2023-07-29T03:48:15;4.13;;;3.10;;
8716;SDS011;4395;48.554;8.820;2023-07-29T03:50:18;5.33;;;3.40;;
8716;SDS011;4395;48.554;8.820;2023-07-29T03:52:22;4.37;;;3.10;;
8716;SDS011;4395;48.554;8.820;2023-07-29T03:54:25;5.37;;;2.83;;
8716;SDS011;4395;48.554;8.820;2023-07-29T03:56:28;3.63;;;3.13;;
8716;SDS011;4395;48.554;8.820;2023-07-29T03:58:31;4.60;;;3.00;;
8716;SDS011;4395;48.554;8.820;2023-07-29T04:00:33;4.20;;;3.13;;
8716;SDS011;4395;48.554;8.820;2023-07-29T04:02:37;4.20;;;2.80;;
8716;SDS011;4395;48.554;8.820;2023-07-29T04:04:40;8.23;;;3.00;;
8716;SDS011;4395;48.554;8.820;2023-07-29T04:06:43;5.07;;;3.10;;
8716;SDS011;4395;48.554;8.820;2023-07-29T04:08:47;5.03;;;3.27;;
8716;SDS011;4395;48.554;8.820;2023-07-29T04:10:50;4.90;;;3.13;;
8716;SDS011;4395;48.554;8.820;2023-07-29T04:12:53;4.63;;;2.77;;
8716;SDS011;4395;48.554;8.820;2023-07-29T04:14:56;6.57;;;3.17;;
8716;SDS011;4395;48.554;8.820;2023-07-29T04:16:59;5.23;;;3.13;;
8716;SDS011;4395;48.554;8.820;2023-07-29T04:19:01;2.80;;;2.60;;
8716;SDS011;4395;48.554;8.820;2023-07-29T04:21:04;7.47;;;3.00;;
8716;SDS011;4395;48.554;8.820;2023-07-29T04:23:07;4.37;;;2.83;;
8716;SDS011;4395;48.554;8.820;2023-07-29T04:25:11;3.87;;;2.90;;
8716;SDS011;4395;48.554;8.820;2023-07-29T04:27:14;4.50;;;3.00;;
8716;SDS011;4395;48.554;8.820;2023-07-29T04:29:17;4.17;;;3.20;;
8716;SDS011;4395;48.554;8.820;2023-07-29T04:31:20;5.73;;;3.30;;
8716;SDS011;4395;48.554;8.820;2023-07-29T04:33:23;5.97;;;3.00;;
8716;SDS011;4395;48.554;8.820;2023-07-29T04:35:25;6.43;;;3.03;;
8716;SDS011;4395;48.554;8.820;2023-07-29T04:37:27;5.50;;;2.93;;
8716;SDS011;4395;48.554;8.820;2023-07-29T04:39:30;15.53;;;3.97;;
8716;SDS011;4395;48.554;8.820;2023-07-29T04:41:35;14.60;;;4.20;;
8716;SDS011;4395;48.554;8.820;2023-07-29T04:43:38;9.87;;;3.77;;
8716;SDS011;4395;48.554;8.820;2023-07-29T04:45:42;6.30;;;3.13;;
8716;SDS011;4395;48.554;8.820;2023-07-29T04:47:45;4.70;;;2.70;;
8716;SDS011;4395;48.554;8.820;2023-07-29T04:49:48;3.00;;;2.70;;
8716;SDS011;4395;48.554;8.820;2023-07-29T04:51:51;4.00;;;2.20;;
8716;SDS011;4395;48.554;8.820;2023-07-29T04:53:54;7.30;;;2.60;;
8716;SDS011;4395;48.554;8.820;2023-07-29T04:55:57;3.97;;;2.87;;
8716;SDS011;4395;48.554;8.820;2023-07-29T04:58:01;4.23;;;2.73;;
8716;SDS011;4395;48.554;8.820;2023-07-29T05:00:04;3.90;;;2.37;;
8716;SDS011;4395;48.554;8.820;2023-07-29T05:02:07;3.03;;;2.73;;
8716;SDS011;4395;48.554;8.820;2023-07-29T05:04:10;3.23;;;2.20;;
8716;SDS011;4395;48.554;8.820;2023-07-29T05:06:13;3.87;;;2.33;;
8716;SDS011;4395;48.554;8.820;2023-07-29T05:08:16;3.07;;;2.13;;
8716;SDS011;4395;48.554;8.820;2023-07-29T05:10:18;4.63;;;2.30;;
8716;SDS011;4395;48.554;8.820;2023-07-29T05:12:21;4.20;;;2.43;;
8716;SDS011;4395;48.554;8.820;2023-07-29T05:14:25;4.67;;;2.97;;
8716;SDS011;4395;48.554;8.820;2023-07-29T05:16:28;4.70;;;2.20;;
8716;SDS011;4395;48.554;8.820;2023-07-29T05:18:31;3.70;;;2.50;;
8716;SDS011;4395;48.554;8.820;2023-07-29T05:20:34;5.93;;;2.80;;
8716;SDS011;4395;48.554;8.820;2023-07-29T05:22:37;3.03;;;2.50;;
8716;SDS011;4395;48.554;8.820;2023-07-29T05:24:39;3.90;;;2.07;;
8716;SDS011;4395;48.554;8.820;2023-07-29T05:26:42;4.20;;;2.03;;
8716;SDS011;4395;48.554;8.820;2023-07-29T05:28:45;3.07;;;2.20;;
8716;SDS011;4395;48.554;8.820;2023-07-29T05:30:49;5.10;;;1.70;;
8716;SDS011;4395;48.554;8.820;2023-07-29T05:32:53;2.07;;;1.70;;
8716;SDS011;4395;48.554;8.820;2023-07-29T05:34:55;1.80;;;1.70;;
8716;SDS011;4395;48.554;8.820;2023-07-29T05:36:58;3.23;;;1.90;;
8716;SDS011;4395;48.554;8.820;2023-07-29T05:38:59;2.20;;;1.77;;
8716;SDS011;4395;48.554;8.820;2023-07-29T05:41:02;3.50;;;1.93;;
8716;SDS011;4395;48.554;8.820;2023-07-29T05:43:04;2.00;;;1.80;;
8716;SDS011;4395;48.554;8.820;2023-07-29T05:45:07;3.70;;;2.03;;
8716;SDS011;4395;48.554;8.820;2023-07-29T05:47:12;2.60;;;1.50;;
8716;SDS011;4395;48.554;8.820;2023-07-29T05:49:15;2.80;;;1.80;;
8716;SDS011;4395;48.554;8.820;2023-07-29T05:51:18;2.13;;;1.63;;
8716;SDS011;4395;48.554;8.820;2023-07-29T05:53:21;2.27;;;1.70;;
8716;SDS011;4395;48.554;8.820;2023-07-29T05:55:23;2.57;;;2.30;;
8716;SDS011;4395;48.554;8.820;2023-07-29T05:57:26;2.67;;;1.77;;
8716;SDS011;4395;48.554;8.820;2023-07-29T05:59:30;2.67;;;1.63;;
8716;SDS011;4395;48.554;8.820;2023-07-29T06:01:33;3.00;;;1.83;;
8716;SDS011;4395;48.554;8.820;2023-07-29T06:03:37;3.00;;;1.87;;
8716;SDS011;4395;48.554;8.820;2023-07-29T06:05:40;1.70;;;1.60;;
8716;SDS011;4395;48.554;8.820;2023-07-29T06:07:43;4.10;;;1.90;;
8716;SDS011;4395;48.554;8.820;2023-07-29T06:09:46;3.20;;;1.90;;
8716;SDS011;4395;48.554;8.820;2023-07-29T06:11:49;4.20;;;1.87;;
8716;SDS011;4395;48.554;8.820;2023-07-29T06:13:55;4.87;;;1.70;;
8716;SDS011;4395;48.554;8.820;2023-07-29T06:15:59;1.63;;;1.53;;
8716;SDS011;4395;48.554;8.820;2023-07-29T06:18:01;1.93;;;1.50;;
8716;SDS011;4395;48.554;8.820;2023-07-29T06:20:06;2.53;;;1.60;;
8716;SDS011;4395;48.554;8.820;2023-07-29T06:22:10;5.33;;;1.43;;
8716;SDS011;4395;48.554;8.820;2023-07-29T06:24:12;1.67;;;1.57;;
8716;SDS011;4395;48.554;8.820;2023-07-29T06:26:15;1.70;;;1.60;;
8716;SDS011;4395;48.554;8.820;2023-07-29T06:28:18;1.53;;;1.43;;
8716;SDS011;4395;48.554;8.820;2023-07-29T06:30:21;4.57;;;1.90;;
8716;SDS011;4395;48.554;8.820;2023-07-29T06:32:23;2.80;;;2.20;;
8716;SDS011;4395;48.554;8.820;2023-07-29T06:34:26;2.60;;;1.70;;
8716;SDS011;4395;48.554;8.820;2023-07-29T06:36:30;3.90;;;2.20;;
8716;SDS011;4395;48.554;8.820;2023-07-29T06:38:33;7.57;;;2.47;;
8716;SDS011;4395;48.554;8.820;2023-07-29T06:40:35;6.33;;;3.20;;
8716;SDS011;4395;48.554;8.820;2023-07-29T06:42:38;8.93;;;2.93;;
8716;SDS011;4395;48.554;8.820;2023-07-29T06:44:41;4.30;;;2.50;;
8716;SDS011;4395;48.554;8.820;2023-07-29T06:46:44;4.13;;;2.40;;
8716;SDS011;4395;48.554;8.820;2023-07-29T06:48:47;3.60;;;2.03;;
8716;SDS011;4395;48.554;8.820;2023-07-29T06:50:49;2.77;;;1.90;;
8716;SDS011;4395;48.554;8.820;2023-07-29T06:52:54;2.57;;;2.03;;
8716;SDS011;4395;48.554;8.820;2023-07-29T06:54:57;2.17;;;2.00;;
8716;SDS011;4395;48.554;8.820;2023-07-29T06:57:00;4.93;;;2.20;;
8716;SDS011;4395;48.554;8.820;2023-07-29T06:59:02;6.80;;;2.60;;
8716;SDS011;4395;48.554;8.820;2023-07-29T07:01:05;3.00;;;2.00;;
8716;SDS011;4395;48.554;8.820;2023-07-29T07:03:08;3.10;;;2.03;;
8716;SDS011;4395;48.554;8.820;2023-07-29T07:05:11;2.37;;;2.13;;
8716;SDS011;4395;48.554;8.820;2023-07-29T07:07:14;3.33;;;1.70;;
8716;SDS011;4395;48.554;8.820;2023-07-29T07:09:19;2.53;;;2.03;;
8716;SDS011;4395;48.554;8.820;2023-07-29T07:11:21;2.80;;;1.70;;
8716;SDS011;4395;48.554;8.820;2023-07-29T07:13:24;2.67;;;1.53;;
8716;SDS011;4395;48.554;8.820;2023-07-29T07:15:27;4.30;;;1.50;;
8716;SDS011;4395;48.554;8.820;2023-07-29T07:17:30;1.57;;;1.47;;
8716;SDS011;4395;48.554;8.820;2023-07-29T07:19:33;1.63;;;1.50;;
8716;SDS011;4395;48.554;8.820;2023-07-29T07:21:35;3.37;;;1.50;;
8716;SDS011;4395;48.554;8.820;2023-07-29T07:23:38;1.77;;;1.53;;
8716;SDS011;4395;48.554;8.820;2023-07-29T07:25:42;2.70;;;1.70;;
8716;SDS011;4395;48.554;8.820;2023-07-29T07:27:45;1.80;;;1.60;;
8716;SDS011;4395;48.554;8.820;2023-07-29T07:29:48;2.80;;;1.43;;
8716;SDS011;4395;48.554;8.820;2023-07-29T07:31:52;2.17;;;1.77;;
8716;SDS011;4395;48.554;8.820;2023-07-29T07:33:56;1.50;;;1.40;;
8716;SDS011;4395;48.554;8.820;2023-07-29T07:35:59;2.10;;;1.67;;
8716;SDS011;4395;48.554;8.820;2023-07-29T07:38:02;2.60;;;1.70;;
8716;SDS011;4395;48.554;8.820;2023-07-29T07:40:06;2.50;;;1.50;;
8716;SDS011;4395;48.554;8.820;2023-07-29T07:42:10;3.87;;;1.80;;
8716;SDS011;4395;48.554;8.820;2023-07-29T07:44:13;2.77;;;1.60;;
8716;SDS011;4395;48.554;8.820;2023-07-29T07:46:19;1.50;;;1.00;;
8716;SDS011;4395;48.554;8.820;2023-07-29T07:48:21;1.87;;;1.13;;
8716;SDS011;4395;48.554;8.820;2023-07-29T07:50:24;2.03;;;1.70;;
8716;SDS011;4395;48.554;8.820;2023-07-29T07:52:27;1.43;;;1.33;;
8716;SDS011;4395;48.554;8.820;2023-07-29T07:54:30;2.17;;;1.37;;
8716;SDS011;4395;48.554;8.820;2023-07-29T07:56:33;1.50;;;1.40;;
8716;SDS011;4395;48.554;8.820;2023-07-29T07:58:37;3.50;;;1.83;;
8716;SDS011;4395;48.554;8.820;2023-07-29T08:00:41;4.00;;;2.10;;
8716;SDS011;4395;48.554;8.820;2023-07-29T08:02:44;2.50;;;2.30;;
8716;SDS011;4395;48.554;8.820;2023-07-29T08:04:47;2.77;;;2.40;;
8716;SDS011;4395;48.554;8.820;2023-07-29T08:06:50;3.03;;;2.40;;
8716;SDS011;4395;48.554;8.820;2023-07-29T08:08:52;3.57;;;2.37;;
8716;SDS011;4395;48.554;8.820;2023-07-29T08:10:56;2.60;;;1.90;;
8716;SDS011;4395;48.554;8.820;2023-07-29T08:12:59;2.43;;;2.13;;
8716;SDS011;4395;48.554;8.820;2023-07-29T08:15:04;2.40;;;1.70;;
8716;SDS011;4395;48.554;8.820;2023-07-29T08:17:07;1.47;;;1.37;;
8716;SDS011;4395;48.554;8.820;2023-07-29T08:19:09;2.30;;;1.47;;
8716;SDS011;4395;48.554;8.820;2023-07-29T08:21:12;50.57;;;7.07;;
8716;SDS011;4395;48.554;8.820;2023-07-29T08:23:15;2.93;;;1.70;;
8716;SDS011;4395;48.554;8.820;2023-07-29T08:25:18;6.27;;;1.90;;
8716;SDS011;4395;48.554;8.820;2023-07-29T08:27:21;3.30;;;1.83;;
8716;SDS011;4395;48.554;8.820;2023-07-29T08:29:23;3.00;;;1.70;;
8716;SDS011;4395;48.554;8.820;2023-07-29T08:31:27;5.93;;;2.10;;
8716;SDS011;4395;48.554;8.820;2023-07-29T08:33:32;1.70;;;1.60;;
8716;SDS011;4395;48.554;8.820;2023-07-29T08:35:36;1.40;;;1.30;;
8716;SDS011;4395;48.554;8.820;2023-07-29T08:37:39;1.70;;;1.60;;
8716;SDS011;4395;48.554;8.820;2023-07-29T08:39:41;2.20;;;1.27;;
8716;SDS011;4395;48.554;8.820;2023-07-29T08:41:45;1.87;;;1.40;;
8716;SDS011;4395;48.554;8.820;2023-07-29T08:46:13;2.30;;;1.57;;
8716;SDS011;4395;48.554;8.820;2023-07-29T08:48:19;1.73;;;1.30;;
8716;SDS011;4395;48.554;8.820;2023-07-29T08:50:31;3.97;;;1.60;;
8716;SDS011;4395;48.554;8.820;2023-07-29T08:52:35;3.13;;;1.40;;
8716;SDS011;4395;48.554;8.820;2023-07-29T08:54:39;2.23;;;1.37;;
8716;SDS011;4395;48.554;8.820;2023-07-29T08:56:42;1.43;;;1.33;;
8716;SDS011;4395;48.554;8.820;2023-07-29T08:58:45;1.97;;;1.47;;
8716;SDS011;4395;48.554;8.820;2023-07-29T09:00:48;2.53;;;1.70;;
8716;SDS011;4395;48.554;8.820;2023-07-29T09:02:52;2.60;;;1.90;;
8716;SDS011;4395;48.554;8.820;2023-07-29T09:04:57;3.43;;;2.00;;
8716;SDS011;4395;48.554;8.820;2023-07-29T09:07:00;2.43;;;2.10;;
8716;SDS011;4395;48.554;8.820;2023-07-29T09:09:04;5.23;;;2.33;;
8716;SDS011;4395;48.554;8.820;2023-07-29T09:11:06;4.53;;;2.37;;
8716;SDS011;4395;48.554;8.820;2023-07-29T09:13:10;3.17;;;2.30;;
8716;SDS011;4395;48.554;8.820;2023-07-29T09:15:13;2.57;;;2.37;;
8716;SDS011;4395;48.554;8.820;2023-07-29T09:17:30;2.67;;;2.47;;
8716;SDS011;4395;48.554;8.820;2023-07-29T09:19:33;3.90;;;2.87;;
8716;SDS011;4395;48.554;8.820;2023-07-29T09:21:39;3.83;;;2.60;;
8716;SDS011;4395;48.554;8.820;2023-07-29T09:23:42;3.30;;;2.57;;
8716;SDS011;4395;48.554;8.820;2023-07-29T09:25:47;2.17;;;1.97;;
8716;SDS011;4395;48.554;8.820;2023-07-29T09:27:50;2.57;;;2.37;;
8716;SDS011;4395;48.554;8.820;2023-07-29T09:29:57;2.33;;;2.13;;
8716;SDS011;4395;48.554;8.820;2023-07-29T09:34:20;2.33;;;2.13;;
8716;SDS011;4395;48.554;8.820;2023-07-29T09:36:23;5.73;;;1.87;;
8716;SDS011;4395;48.554;8.820;2023-07-29T09:38:27;3.00;;;2.17;;
8716;SDS011;4395;48.554;8.820;2023-07-29T09:40:33;2.00;;;1.90;;
8716;SDS011;4395;48.554;8.820;2023-07-29T09:42:38;2.37;;;2.00;;
8716;SDS011;4395;48.554;8.820;2023-07-29T09:44:41;2.53;;;2.23;;
8716;SDS011;4395;48.554;8.820;2023-07-29T09:46:45;2.00;;;1.90;;
8716;SDS011;4395;48.554;8.820;2023-07-29T09:48:49;2.10;;;1.90;;
8716;SDS011;4395;48.554;8.820;2023-07-29T09:50:54;2.73;;;2.00;;
8716;SDS011;4395;48.554;8.820;2023-07-29T09:52:56;2.17;;;2.00;;
8716;SDS011;4395;48.554;8.820;2023-07-29T09:55:02;2.73;;;1.90;;
8716;SDS011;4395;48.554;8.820;2023-07-29T09:57:05;1.90;;;1.80;;
8716;SDS011;4395;48.554;8.820;2023-07-29T09:59:09;1.90;;;1.80;;
8716;SDS011;4395;48.554;8.820;2023-07-29T10:01:13;2.10;;;1.90;;
8716;SDS011;4395;48.554;8.820;2023-07-29T10:03:16;8.80;;;2.20;;
8716;SDS011;4395;48.554;8.820;2023-07-29T10:05:21;2.13;;;1.93;;
8716;SDS011;4395;48.554;8.820;2023-07-29T10:07:25;2.30;;;2.07;;
8716;SDS011;4395;48.554;8.820;2023-07-29T10:09:28;2.50;;;2.03;;
8716;SDS011;4395;48.554;8.820;2023-07-29T10:11:33;2.10;;;2.00;;
8716;SDS011;4395;48.554;8.820;2023-07-29T10:13:38;2.23;;;1.90;;
8716;SDS011;4395;48.554;8.820;2023-07-29T10:15:42;2.07;;;1.90;;
8716;SDS011;4395;48.554;8.820;2023-07-29T10:17:47;6.03;;;2.20;;
8716;SDS011;4395;48.554;8.820;2023-07-29T10:19:52;2.97;;;1.97;;
8716;SDS011;4395;48.554;8.820;2023-07-29T10:21:59;2.60;;;2.10;;
8716;SDS011;4395;48.554;8.820;2023-07-29T10:24:02;4.30;;;2.20;;
8716;SDS011;4395;48.554;8.820;2023-07-29T10:26:09;3.73;;;2.13;;
8716;SDS011;4395;48.554;8.820;2023-07-29T10:28:14;2.13;;;2.03;;
8716;SDS011;4395;48.554;8.820;2023-07-29T10:30:22;2.00;;;1.90;;
8716;SDS011;4395;48.554;8.820;2023-07-29T10:32:27;2.23;;;2.13;;
8716;SDS011;4395;48.554;8.820;2023-07-29T10:34:32;2.10;;;1.90;;
8716;SDS011;4395;48.554;8.820;2023-07-29T10:36:37;3.80;;;2.17;;
8716;SDS011;4395;48.554;8.820;2023-07-29T10:38:40;2.47;;;2.27;;
8716;SDS011;4395;48.554;8.820;2023-07-29T10:40:43;2.10;;;2.00;;
8716;SDS011;4395;48.554;8.820;2023-07-29T10:42:59;2.40;;;2.20;;
8716;SDS011;4395;48.554;8.820;2023-07-29T10:45:21;2.40;;;2.17;;
8716;SDS011;4395;48.554;8.820;2023-07-29T10:47:25;2.90;;;2.10;;
8716;SDS011;4395;48.554;8.820;2023-07-29T10:49:29;3.77;;;2.50;;
8716;SDS011;4395;48.554;8.820;2023-07-29T10:51:34;2.30;;;2.20;;
8716;SDS011;4395;48.554;8.820;2023-07-29T10:53:38;2.93;;;2.10;;
8716;SDS011;4395;48.554;8.820;2023-07-29T10:55:41;2.50;;;2.10;;
8716;SDS011;4395;48.554;8.820;2023-07-29T10:57:46;2.30;;;2.10;;
8716;SDS011;4395;48.554;8.820;2023-07-29T10:59:53;2.60;;;2.40;;
8716;SDS011;4395;48.554;8.820;2023-07-29T11:01:59;2.50;;;2.30;;
8716;SDS011;4395;48.554;8.820;2023-07-29T11:06:28;2.73;;;2.53;;
8716;SDS011;4395;48.554;8.820;2023-07-29T11:08:31;2.17;;;2.07;;
8716;SDS011;4395;48.554;8.820;2023-07-29T11:10:42;2.93;;;2.53;;
8716;SDS011;4395;48.554;8.820;2023-07-29T11:12:46;2.40;;;2.20;;
8716;SDS011;4395;48.554;8.820;2023-07-29T11:14:51;2.33;;;2.20;;
8716;SDS011;4395;48.554;8.820;2023-07-29T11:16:53;2.37;;;2.17;;
8716;SDS011;4395;48.554;8.820;2023-07-29T11:18:58;2.43;;;2.20;;
8716;SDS011;4395;48.554;8.820;2023-07-29T11:21:03;5.10;;;2.23;;
8716;SDS011;4395;48.554;8.820;2023-07-29T11:23:06;2.67;;;2.10;;
8716;SDS011;4395;48.554;8.820;2023-07-29T11:25:10;2.40;;;2.20;;
8716;SDS011;4395;48.554;8.820;2023-07-29T11:27:12;3.27;;;2.17;;
8716;SDS011;4395;48.554;8.820;2023-07-29T11:29:15;2.60;;;2.40;;
8716;SDS011;4395;48.554;8.820;2023-07-29T11:31:18;2.57;;;1.93;;
8716;SDS011;4395;48.554;8.820;2023-07-29T11:33:22;2.97;;;2.50;;
8716;SDS011;4395;48.554;8.820;2023-07-29T11:35:28;2.90;;;2.17;;
8716;SDS011;4395;48.554;8.820;2023-07-29T11:37:32;2.50;;;2.30;;
8716;SDS011;4395;48.554;8.820;2023-07-29T11:39:39;3.10;;;1.90;;
8716;SDS011;4395;48.554;8.820;2023-07-29T11:41:42;2.40;;;2.20;;
8716;SDS011;4395;48.554;8.820;2023-07-29T11:43:45;2.37;;;2.17;;
8716;SDS011;4395;48.554;8.820;2023-07-29T11:45:47;2.40;;;2.23;;
8716;SDS011;4395;48.554;8.820;2023-07-29T11:47:54;3.83;;;2.10;;
8716;SDS011;4395;48.554;8.820;2023-07-29T11:49:58;5.50;;;2.47;;
8716;SDS011;4395;48.554;8.820;2023-07-29T11:52:04;2.17;;;2.00;;
8716;SDS011;4395;48.554;8.820;2023-07-29T11:54:08;2.30;;;2.20;;
8716;SDS011;4395;48.554;8.820;2023-07-29T11:56:11;2.50;;;2.10;;
8716;SDS011;4395;48.554;8.820;2023-07-29T11:58:15;3.30;;;2.10;;
8716;SDS011;4395;48.554;8.820;2023-07-29T12:00:18;2.20;;;1.93;;
8716;SDS011;4395;48.554;8.820;2023-07-29T12:02:21;3.27;;;2.30;;
8716;SDS011;4395;48.554;8.820;2023-07-29T12:04:25;2.40;;;2.20;;
8716;SDS011;4395;48.554;8.820;2023-07-29T12:06:28;2.43;;;2.23;;
8716;SDS011;4395;48.554;8.820;2023-07-29T12:08:33;2.10;;;2.00;;
8716;SDS011;4395;48.554;8.820;2023-07-29T12:10:37;2.63;;;2.00;;
8716;SDS011;4395;48.554;8.820;2023-07-29T12:12:44;2.40;;;2.20;;
8716;SDS011;4395;48.554;8.820;2023-07-29T12:14:47;2.67;;;2.17;;
8716;SDS011;4395;48.554;8.820;2023-07-29T12:16:50;3.10;;;2.10;;
8716;SDS011;4395;48.554;8.820;2023-07-29T12:18:54;2.37;;;2.07;;
8716;SDS011;4395;48.554;8.820;2023-07-29T12:20:57;2.20;;;2.07;;
8716;SDS011;4395;48.554;8.820;2023-07-29T12:23:00;2.50;;;2.30;;
8716;SDS011;4395;48.554;8.820;2023-07-29T12:25:05;3.37;;;2.17;;
8716;SDS011;4395;48.554;8.820;2023-07-29T12:27:12;3.93;;;2.40;;
8716;SDS011;4395;48.554;8.820;2023-07-29T12:29:17;9.37;;;2.90;;
8716;SDS011;4395;48.554;8.820;2023-07-29T12:31:22;4.47;;;2.20;;
8716;SDS011;4395;48.554;8.820;2023-07-29T12:33:34;2.30;;;2.10;;
8716;SDS011;4395;48.554;8.820;2023-07-29T12:35:40;1.90;;;1.80;;
8716;SDS011;4395;48.554;8.820;2023-07-29T12:37:42;2.10;;;1.97;;
8716;SDS011;4395;48.554;8.820;2023-07-29T12:39:44;2.03;;;1.70;;
8716;SDS011;4395;48.554;8.820;2023-07-29T12:41:49;2.30;;;2.10;;
8716;SDS011;4395;48.554;8.820;2023-07-29T12:43:52;2.47;;;1.97;;
8716;SDS011;4395;48.554;8.820;2023-07-29T12:45:56;2.40;;;2.07;;
8716;SDS011;4395;48.554;8.820;2023-07-29T12:47:59;2.40;;;1.67;;
8716;SDS011;4395;48.554;8.820;2023-07-29T12:50:02;2.20;;;2.00;;
8716;SDS011;4395;48.554;8.820;2023-07-29T12:52:06;2.20;;;2.10;;
8716;SDS011;4395;48.554;8.820;2023-07-29T12:54:09;2.10;;;1.90;;
8716;SDS011;4395;48.554;8.820;2023-07-29T12:56:12;2.30;;;2.10;;